createdAt,value
2018-09-17T00:00:09.114Z,1013.20
2018-09-17T00:05:05.891Z,1013.16
2018-09-17T00:10:01.919Z,1013.16
2018-09-17T00:14:58.455Z,1013.16
2018-09-17T00:19:54.249Z,1013.14
2018-09-17T00:24:50.109Z,1013.13
2018-09-17T00:29:45.804Z,1013.26
2018-09-17T00:34:41.429Z,1013.14
2018-09-17T00:39:38.035Z,1013.08
2018-09-17T00:44:34.804Z,1013.12
2018-09-17T00:49:30.384Z,1013.11
2018-09-17T00:54:26.439Z,1013.06
2018-09-17T00:59:22.391Z,1012.97
2018-09-17T01:04:19.351Z,1012.97
2018-09-17T01:09:14.882Z,1012.92
2018-09-17T01:14:11.552Z,1012.94
2018-09-17T01:19:06.998Z,1012.99
2018-09-17T01:24:02.628Z,1013.00
2018-09-17T01:28:59.358Z,1012.97
2018-09-17T01:33:54.846Z,1012.88
2018-09-17T01:38:50.607Z,1012.75
2018-09-17T01:43:47.551Z,1012.72
2018-09-17T01:48:42.952Z,1012.67
2018-09-17T01:53:39.903Z,1012.68
2018-09-17T01:58:35.604Z,1012.69
2018-09-17T02:03:32.128Z,1012.61
2018-09-17T02:08:27.836Z,1012.61
2018-09-17T02:13:24.491Z,1012.52
2018-09-17T02:18:19.955Z,1012.67
2018-09-17T02:23:15.745Z,1012.68
2018-09-17T02:28:11.501Z,1012.73
2018-09-17T02:33:07.306Z,1012.97
2018-09-17T02:38:03.217Z,1013.02
2018-09-17T02:42:58.957Z,1013.07
2018-09-17T02:47:54.669Z,1013.01
2018-09-17T02:52:51.328Z,1012.90
2018-09-17T02:57:46.983Z,1013.02
2018-09-17T03:02:42.574Z,1013.03
2018-09-17T03:07:38.240Z,1012.94
2018-09-17T03:12:33.993Z,1012.95
2018-09-17T03:17:29.805Z,1012.98
2018-09-17T03:22:26.564Z,1013.05
2018-09-17T03:27:21.793Z,1012.98
2018-09-17T03:32:17.642Z,1012.88
2018-09-17T03:37:14.453Z,1012.97
2018-09-17T03:42:09.601Z,1013.06
2018-09-17T03:47:05.246Z,1012.88
2018-09-17T03:52:00.740Z,1012.90
2018-09-17T03:56:56.599Z,1012.91
2018-09-17T04:01:52.153Z,1012.89
2018-09-17T04:06:48.091Z,1012.95
2018-09-17T04:11:45.110Z,1012.91
2018-09-17T04:16:40.570Z,1012.94
2018-09-17T04:21:37.153Z,1012.97
2018-09-17T04:26:32.678Z,1012.89
2018-09-17T04:31:29.534Z,1013.02
2018-09-17T04:36:24.883Z,1012.90
2018-09-17T04:41:20.975Z,1012.93
2018-09-17T04:46:17.364Z,1012.91
2018-09-17T04:51:13.492Z,1012.96
2018-09-17T04:56:10.452Z,1013.04
2018-09-17T05:01:05.955Z,1013.07
2018-09-17T05:06:02.313Z,1013.17
2018-09-17T05:10:58.016Z,1013.22
2018-09-17T05:15:53.737Z,1013.24
2018-09-17T05:20:49.734Z,1013.28
2018-09-17T05:25:45.863Z,1013.28
2018-09-17T05:30:41.790Z,1013.25
2018-09-17T05:35:37.933Z,1013.31
2018-09-17T05:40:33.909Z,1013.30
2018-09-17T05:45:30.781Z,1013.30
2018-09-17T05:50:26.650Z,1013.32
2018-09-17T05:55:23.199Z,1013.41
2018-09-17T06:00:19.209Z,1013.42
2018-09-17T06:05:15.196Z,1013.51
2018-09-17T06:10:11.392Z,1013.45
2018-09-17T06:15:07.319Z,1013.56
2018-09-17T06:20:04.073Z,1013.67
2018-09-17T06:24:59.763Z,1013.67
2018-09-17T06:29:56.628Z,1013.66
2018-09-17T06:34:52.287Z,1013.72
2018-09-17T06:39:47.978Z,1013.78
2018-09-17T06:44:43.893Z,1013.77
2018-09-17T06:49:40.781Z,1013.85
2018-09-17T06:54:38.421Z,1013.74
2018-09-17T06:59:34.055Z,1013.76
2018-09-17T07:04:30.159Z,1013.63
2018-09-17T07:09:26.369Z,1013.72
2018-09-17T07:14:22.860Z,1013.70
2018-09-17T07:19:19.650Z,1013.72
2018-09-17T07:24:15.300Z,1013.65
2018-09-17T07:29:11.166Z,1013.58
2018-09-17T07:34:07.065Z,1013.66
2018-09-17T07:39:03.081Z,1013.65
2018-09-17T07:43:59.366Z,1013.76
2018-09-17T07:48:55.451Z,1013.76
2018-09-17T07:53:52.629Z,1013.70
2018-09-17T07:58:49.352Z,1013.58
2018-09-17T08:03:45.448Z,1013.63
2018-09-17T08:08:41.930Z,1013.65
2018-09-17T08:13:38.217Z,1013.57
2018-09-17T08:18:35.482Z,1013.54
2018-09-17T08:23:32.353Z,1013.45
2018-09-17T08:28:28.085Z,1013.51
2018-09-17T08:33:23.992Z,1013.56
2018-09-17T08:38:19.664Z,1013.64
2018-09-17T08:43:15.759Z,1013.64
2018-09-17T08:48:11.430Z,1013.68
2018-09-17T08:53:08.456Z,1013.61
2018-09-17T08:58:04.041Z,1013.64
2018-09-17T09:03:00.006Z,1013.62
2018-09-17T09:07:55.807Z,1013.54
2018-09-17T09:12:51.859Z,1013.64
2018-09-17T09:17:49.171Z,1013.65
2018-09-17T09:22:45.956Z,1013.61
2018-09-17T09:27:41.627Z,1013.53
2018-09-17T09:32:37.746Z,1013.55
2018-09-17T09:37:34.087Z,1013.47
2018-09-17T09:42:30.678Z,1013.61
2018-09-17T09:47:27.357Z,1013.61
2018-09-17T09:52:24.550Z,1013.48
2018-09-17T09:57:20.315Z,1013.47
2018-09-17T10:02:16.687Z,1013.40
2018-09-17T10:07:12.894Z,1013.35
2018-09-17T10:12:08.960Z,1013.28
2018-09-17T10:17:04.883Z,1013.22
2018-09-17T10:22:00.908Z,1013.14
2018-09-17T10:26:57.023Z,1013.18
2018-09-17T10:31:54.391Z,1013.09
2018-09-17T10:36:50.172Z,1013.11
2018-09-17T10:41:46.259Z,1012.97
2018-09-17T10:46:42.243Z,1012.90
2018-09-17T10:51:38.487Z,1012.90
2018-09-17T10:56:34.678Z,1012.89
2018-09-17T11:01:31.751Z,1012.84
2018-09-17T11:06:29.157Z,1012.80
2018-09-17T11:11:25.992Z,1012.75
2018-09-17T11:16:23.722Z,1012.68
2018-09-17T11:21:21.139Z,1012.68
2018-09-17T11:26:17.410Z,1012.72
2018-09-17T11:31:13.883Z,1012.69
2018-09-17T11:36:10.243Z,1012.62
2018-09-17T11:41:06.522Z,1012.65
2018-09-17T11:46:02.886Z,1012.51
2018-09-17T11:50:59.110Z,1012.47
2018-09-17T11:55:54.648Z,1012.47
2018-09-17T12:00:50.268Z,1012.47
2018-09-17T12:05:47.025Z,1012.45
2018-09-17T12:10:42.865Z,1012.46
2018-09-17T12:15:38.446Z,1012.34
2018-09-17T12:20:33.697Z,1012.19
2018-09-17T12:25:30.012Z,1012.20
2018-09-17T12:30:25.211Z,1012.12
2018-09-17T12:35:20.793Z,1012.06
2018-09-17T12:40:16.444Z,1011.93
2018-09-17T12:45:11.998Z,1012.02
2018-09-17T12:50:08.676Z,1011.98
2018-09-17T12:55:04.058Z,1011.89
2018-09-17T13:00:00.804Z,1011.80
2018-09-17T13:04:57.404Z,1011.82
2018-09-17T13:09:53.425Z,1011.75
2018-09-17T13:14:49.299Z,1011.73
2018-09-17T13:19:45.329Z,1011.71
2018-09-17T13:24:41.323Z,1011.65
2018-09-17T13:29:37.270Z,1011.63
2018-09-17T13:34:33.295Z,1011.62
2018-09-17T13:39:29.128Z,1011.53
2018-09-17T13:44:24.863Z,1011.48
2018-09-17T13:49:21.833Z,1011.50
2018-09-17T13:54:17.518Z,1011.43
2018-09-17T13:59:13.600Z,1011.41
2018-09-17T14:04:09.531Z,1011.29
2018-09-17T14:09:05.683Z,1011.26
2018-09-17T14:14:01.693Z,1011.26
2018-09-17T14:18:57.764Z,1011.13
2018-09-17T14:23:54.219Z,1011.11
2018-09-17T14:28:50.065Z,1011.11
2018-09-17T14:33:47.500Z,1011.07
2018-09-17T14:38:44.597Z,1010.93
2018-09-17T14:43:40.411Z,1010.84
2018-09-17T14:48:36.794Z,1010.84
2018-09-17T14:53:32.819Z,1010.83
2018-09-17T14:58:29.988Z,1010.76
2018-09-17T15:03:25.867Z,1010.64
2018-09-17T15:08:21.829Z,1010.60
2018-09-17T15:13:17.845Z,1010.59
2018-09-17T15:18:14.040Z,1010.60
2018-09-17T15:23:09.888Z,1010.57
2018-09-17T15:28:06.856Z,1010.50
2018-09-17T15:33:02.421Z,1010.46
2018-09-17T15:37:58.265Z,1010.32
2018-09-17T15:42:54.122Z,1010.32
2018-09-17T15:47:49.949Z,1010.25
2018-09-17T15:52:45.815Z,1010.14
2018-09-17T15:57:41.771Z,1010.28
2018-09-17T16:02:37.893Z,1010.15
2018-09-17T16:07:35.308Z,1010.09
2018-09-17T16:12:30.960Z,1010.13
2018-09-17T16:17:27.913Z,1010.05
2018-09-17T16:22:23.621Z,1010.16
2018-09-17T16:27:19.447Z,1010.09
2018-09-17T16:32:15.487Z,1010.13
2018-09-17T16:37:11.536Z,1010.03
2018-09-17T16:42:08.498Z,1010.02
2018-09-17T16:47:04.039Z,1009.98
2018-09-17T16:51:59.440Z,1009.90
2018-09-17T16:56:55.330Z,1009.95
2018-09-17T17:01:51.121Z,1010.07
2018-09-17T17:06:46.853Z,1010.09
2018-09-17T17:11:43.933Z,1009.93
2018-09-17T17:16:40.053Z,1009.97
2018-09-17T17:21:35.496Z,1009.99
2018-09-17T17:26:31.438Z,1009.93
2018-09-17T17:31:27.414Z,1010.02
2018-09-17T17:36:23.166Z,1009.97
2018-09-17T17:41:19.919Z,1009.90
2018-09-17T17:46:16.206Z,1009.94
2018-09-17T17:51:12.027Z,1009.91
2018-09-17T17:56:07.800Z,1009.84
2018-09-17T18:01:04.886Z,1009.90
2018-09-17T18:06:00.440Z,1009.86
2018-09-17T18:10:56.242Z,1009.82
2018-09-17T18:15:52.997Z,1009.79
2018-09-17T18:20:49.056Z,1009.76
2018-09-17T18:25:45.464Z,1009.81
2018-09-17T18:30:42.531Z,1009.80
2018-09-17T18:35:38.357Z,1009.71
2018-09-17T18:40:35.022Z,1009.76
2018-09-17T18:45:30.676Z,1009.77
2018-09-17T18:50:27.537Z,1009.75
2018-09-17T18:55:24.062Z,1009.79
2018-09-17T19:00:19.743Z,1009.73
2018-09-17T19:05:16.521Z,1009.79
2018-09-17T19:10:11.940Z,1009.75
2018-09-17T19:15:07.889Z,1009.72
2018-09-17T19:20:05.281Z,1009.66
2018-09-17T19:25:01.041Z,1009.63
2018-09-17T19:29:57.038Z,1009.55
2018-09-17T19:34:52.702Z,1009.58
2018-09-17T19:39:49.438Z,1009.52
2018-09-17T19:44:44.986Z,1009.53
2018-09-17T19:49:40.871Z,1009.55
2018-09-17T19:54:38.368Z,1009.45
2018-09-17T19:59:34.192Z,1009.47
2018-09-17T20:04:29.637Z,1009.44
2018-09-17T20:09:25.375Z,1009.39
2018-09-17T20:14:21.012Z,1009.43
2018-09-17T20:19:16.834Z,1009.39
2018-09-17T20:24:12.433Z,1009.40
2018-09-17T20:29:08.668Z,1009.28
2018-09-17T20:34:04.579Z,1009.30
2018-09-17T20:39:00.336Z,1009.32
2018-09-17T20:43:56.275Z,1009.27
2018-09-17T20:48:52.017Z,1009.28
2018-09-17T20:53:47.867Z,1009.25
2018-09-17T20:58:44.657Z,1009.14
2018-09-17T21:03:40.448Z,1009.16
2018-09-17T21:08:36.175Z,1009.19
2018-09-17T21:13:32.971Z,1009.15
2018-09-17T21:18:29.359Z,1009.05
2018-09-17T21:23:26.166Z,1009.05
2018-09-17T21:28:21.679Z,1008.98
2018-09-17T21:33:18.189Z,1009.06
2018-09-17T21:38:14.133Z,1008.91
2018-09-17T21:43:10.186Z,1008.91
2018-09-17T21:48:06.073Z,1008.91
2018-09-17T21:53:03.047Z,1008.95
2018-09-17T21:57:58.638Z,1008.83
2018-09-17T22:02:54.519Z,1008.88
2018-09-17T22:07:51.748Z,1008.83
2018-09-17T22:12:47.726Z,1008.79
2018-09-17T22:17:43.666Z,1008.77
2018-09-17T22:22:40.591Z,1008.81
2018-09-17T22:27:36.314Z,1008.73
2018-09-17T22:32:32.075Z,1008.72
2018-09-17T22:37:28.069Z,1008.64
2018-09-17T22:42:23.540Z,1008.64
2018-09-17T22:47:19.439Z,1008.62
2018-09-17T22:52:15.229Z,1008.57
2018-09-17T22:57:11.183Z,1008.59
2018-09-17T23:02:07.093Z,1008.49
2018-09-17T23:07:03.901Z,1008.46
2018-09-17T23:11:59.874Z,1008.42
2018-09-17T23:16:55.511Z,1008.41
2018-09-17T23:21:51.421Z,1008.37
2018-09-17T23:26:47.199Z,1008.42
2018-09-17T23:31:43.122Z,1008.27
2018-09-17T23:36:39.929Z,1008.28
2018-09-17T23:41:35.161Z,1008.27
2018-09-17T23:46:31.228Z,1008.19
2018-09-17T23:51:28.028Z,1008.13
2018-09-17T23:56:24.312Z,1008.08
